KBJC/BJC METAR and TAF weather

Enter ICAO airport designator
Station Type Date Time Source
KBJC METAR 2019/05/23 19:45 UTC NOAA

KBJC 231945Z 33005KT 10SM OVC023 05/03 A3003


Station Type Date Time Source
KBJC Decoded METAR 2019/05/23 19:45 UTC NOAA

Broomfield / Jeffco, CO, United States (KBJC) 39-55N 105-07W
May 23, 2019 - 03:45 PM EDT / 2019.05.23 1945 UTC
Wind: from the NNW (330 degrees) at 6 MPH (5 KT):0
Visibility: 10 mile(s):0
Sky conditions: overcast
Temperature: 41 F (5 C)
Dew Point: 37 F (3 C)
Relative Humidity: 86%
Pressure (altimeter): 30.03 in. Hg (1016 hPa)
ob: KBJC 231945Z 33005KT 10SM OVC023 05/03 A3003
cycle: 20

Station Type Date Time Source
KBJC TAF 2019/05/23 18:22 UTC NOAA

TAF KBJC 231720Z 2318/2418 07005KT P6SM VCSH SCT012 OVC020
FM232000 36012G18KT P6SM -SHRA BKN012 OVC020
TEMPO 2320/2324 4SM SHRA BR BKN008
FM240300 29010KT P6SM SCT070
FM241000 19005KT P6SM FEW070
FM241700 VRB05KT P6SM FEW070 SCT200

Example: see airport list